sensor_id;sensor_type;location;lat;lon;timestamp;P1;durP1;ratioP1;P2;durP2;ratioP2
21777;SDS011;11050;52.222;20.916;2023-03-29T00:01:16;12.47;;;5.17;;
21777;SDS011;11050;52.222;20.916;2023-03-29T00:03:42;10.00;;;4.27;;
21777;SDS011;11050;52.222;20.916;2023-03-29T00:06:10;12.57;;;4.70;;
21777;SDS011;11050;52.222;20.916;2023-03-29T00:08:39;10.93;;;4.97;;
21777;SDS011;11050;52.222;20.916;2023-03-29T00:11:06;12.90;;;5.93;;
21777;SDS011;11050;52.222;20.916;2023-03-29T00:13:32;10.53;;;3.97;;
21777;SDS011;11050;52.222;20.916;2023-03-29T00:15:59;13.60;;;4.70;;
21777;SDS011;11050;52.222;20.916;2023-03-29T00:18:24;10.53;;;4.63;;
21777;SDS011;11050;52.222;20.916;2023-03-29T00:20:57;14.40;;;5.67;;
21777;SDS011;11050;52.222;20.916;2023-03-29T00:23:24;11.03;;;5.40;;
21777;SDS011;11050;52.222;20.916;2023-03-29T00:25:53;9.83;;;4.43;;
21777;SDS011;11050;52.222;20.916;2023-03-29T00:28:19;10.87;;;4.80;;
21777;SDS011;11050;52.222;20.916;2023-03-29T00:30:46;8.50;;;3.83;;
21777;SDS011;11050;52.222;20.916;2023-03-29T00:33:12;9.40;;;4.20;;
21777;SDS011;11050;52.222;20.916;2023-03-29T00:35:38;13.47;;;4.90;;
21777;SDS011;11050;52.222;20.916;2023-03-29T00:38:05;13.20;;;4.80;;
21777;SDS011;11050;52.222;20.916;2023-03-29T00:40:31;14.17;;;5.67;;
21777;SDS011;11050;52.222;20.916;2023-03-29T00:42:58;13.10;;;5.03;;
21777;SDS011;11050;52.222;20.916;2023-03-29T00:45:26;7.97;;;3.40;;
21777;SDS011;11050;52.222;20.916;2023-03-29T00:47:56;9.17;;;4.23;;
21777;SDS011;11050;52.222;20.916;2023-03-29T00:50:30;8.70;;;4.40;;
21777;SDS011;11050;52.222;20.916;2023-03-29T00:53:05;10.93;;;4.83;;
21777;SDS011;11050;52.222;20.916;2023-03-29T00:58:27;7.90;;;3.77;;
21777;SDS011;11050;52.222;20.916;2023-03-29T01:01:09;11.93;;;3.73;;
21777;SDS011;11050;52.222;20.916;2023-03-29T01:03:50;8.60;;;4.03;;
21777;SDS011;11050;52.222;20.916;2023-03-29T01:06:23;10.67;;;5.37;;
21777;SDS011;11050;52.222;20.916;2023-03-29T01:08:54;8.87;;;4.27;;
21777;SDS011;11050;52.222;20.916;2023-03-29T01:11:26;10.53;;;4.60;;
21777;SDS011;11050;52.222;20.916;2023-03-29T01:14:05;9.50;;;4.33;;
21777;SDS011;11050;52.222;20.916;2023-03-29T01:16:40;11.37;;;5.57;;
21777;SDS011;11050;52.222;20.916;2023-03-29T01:19:07;17.27;;;5.53;;
21777;SDS011;11050;52.222;20.916;2023-03-29T01:21:42;13.40;;;5.30;;
21777;SDS011;11050;52.222;20.916;2023-03-29T01:30:13;7.67;;;3.83;;
21777;SDS011;11050;52.222;20.916;2023-03-29T01:32:59;9.23;;;4.07;;
21777;SDS011;11050;52.222;20.916;2023-03-29T01:35:39;10.90;;;4.10;;
21777;SDS011;11050;52.222;20.916;2023-03-29T01:38:22;9.00;;;3.60;;
21777;SDS011;11050;52.222;20.916;2023-03-29T01:41:00;9.60;;;4.43;;
21777;SDS011;11050;52.222;20.916;2023-03-29T01:43:30;11.80;;;4.63;;
21777;SDS011;11050;52.222;20.916;2023-03-29T01:46:31;7.83;;;3.97;;
21777;SDS011;11050;52.222;20.916;2023-03-29T01:49:16;9.23;;;4.50;;
21777;SDS011;11050;52.222;20.916;2023-03-29T01:52:03;9.30;;;4.20;;
21777;SDS011;11050;52.222;20.916;2023-03-29T01:54:52;15.50;;;4.63;;
21777;SDS011;11050;52.222;20.916;2023-03-29T01:57:27;10.03;;;4.33;;
21777;SDS011;11050;52.222;20.916;2023-03-29T01:59:56;11.60;;;4.43;;
21777;SDS011;11050;52.222;20.916;2023-03-29T02:02:30;13.77;;;4.90;;
21777;SDS011;11050;52.222;20.916;2023-03-29T02:04:57;13.10;;;4.83;;
21777;SDS011;11050;52.222;20.916;2023-03-29T02:07:25;9.30;;;4.30;;
21777;SDS011;11050;52.222;20.916;2023-03-29T02:10:01;10.43;;;3.63;;
21777;SDS011;11050;52.222;20.916;2023-03-29T02:12:29;11.73;;;4.20;;
21777;SDS011;11050;52.222;20.916;2023-03-29T02:14:58;10.53;;;4.43;;
21777;SDS011;11050;52.222;20.916;2023-03-29T02:17:28;13.87;;;4.77;;
21777;SDS011;11050;52.222;20.916;2023-03-29T02:25:58;9.63;;;4.40;;
21777;SDS011;11050;52.222;20.916;2023-03-29T02:28:27;7.63;;;3.67;;
21777;SDS011;11050;52.222;20.916;2023-03-29T02:31:04;11.40;;;4.20;;
21777;SDS011;11050;52.222;20.916;2023-03-29T02:36:42;8.70;;;4.07;;
21777;SDS011;11050;52.222;20.916;2023-03-29T02:39:14;7.93;;;3.97;;
21777;SDS011;11050;52.222;20.916;2023-03-29T02:41:44;9.97;;;4.10;;
21777;SDS011;11050;52.222;20.916;2023-03-29T02:44:19;11.87;;;4.07;;
21777;SDS011;11050;52.222;20.916;2023-03-29T02:46:50;11.93;;;4.17;;
21777;SDS011;11050;52.222;20.916;2023-03-29T02:49:22;11.47;;;4.40;;
21777;SDS011;11050;52.222;20.916;2023-03-29T02:51:49;10.23;;;4.13;;
21777;SDS011;11050;52.222;20.916;2023-03-29T02:54:20;8.50;;;3.67;;
21777;SDS011;11050;52.222;20.916;2023-03-29T02:56:54;12.47;;;4.80;;
21777;SDS011;11050;52.222;20.916;2023-03-29T02:59:27;12.97;;;4.30;;
21777;SDS011;11050;52.222;20.916;2023-03-29T03:01:54;12.27;;;3.70;;
21777;SDS011;11050;52.222;20.916;2023-03-29T03:04:20;7.90;;;4.40;;
21777;SDS011;11050;52.222;20.916;2023-03-29T03:06:47;9.23;;;4.00;;
21777;SDS011;11050;52.222;20.916;2023-03-29T03:09:13;8.50;;;4.63;;
21777;SDS011;11050;52.222;20.916;2023-03-29T03:11:39;9.47;;;4.23;;
21777;SDS011;11050;52.222;20.916;2023-03-29T03:14:05;9.80;;;4.50;;
21777;SDS011;11050;52.222;20.916;2023-03-29T03:16:31;12.47;;;5.33;;
21777;SDS011;11050;52.222;20.916;2023-03-29T03:18:58;13.03;;;5.10;;
21777;SDS011;11050;52.222;20.916;2023-03-29T03:21:24;11.00;;;4.23;;
21777;SDS011;11050;52.222;20.916;2023-03-29T03:23:52;8.00;;;4.50;;
21777;SDS011;11050;52.222;20.916;2023-03-29T03:26:18;10.90;;;5.37;;
21777;SDS011;11050;52.222;20.916;2023-03-29T03:28:44;13.17;;;5.67;;
21777;SDS011;11050;52.222;20.916;2023-03-29T03:31:10;7.73;;;4.30;;
21777;SDS011;11050;52.222;20.916;2023-03-29T03:33:39;8.73;;;4.20;;
21777;SDS011;11050;52.222;20.916;2023-03-29T03:36:09;13.00;;;5.67;;
21777;SDS011;11050;52.222;20.916;2023-03-29T03:38:36;13.80;;;5.40;;
21777;SDS011;11050;52.222;20.916;2023-03-29T03:41:02;15.03;;;5.67;;
21777;SDS011;11050;52.222;20.916;2023-03-29T03:43:30;10.47;;;5.07;;
21777;SDS011;11050;52.222;20.916;2023-03-29T03:45:57;8.20;;;4.37;;
21777;SDS011;11050;52.222;20.916;2023-03-29T03:48:23;14.13;;;4.57;;
21777;SDS011;11050;52.222;20.916;2023-03-29T03:50:51;13.93;;;5.33;;
21777;SDS011;11050;52.222;20.916;2023-03-29T03:53:24;12.17;;;5.43;;
21777;SDS011;11050;52.222;20.916;2023-03-29T03:55:52;17.33;;;5.23;;
21777;SDS011;11050;52.222;20.916;2023-03-29T03:58:20;10.07;;;4.93;;
21777;SDS011;11050;52.222;20.916;2023-03-29T04:00:47;15.60;;;5.60;;
21777;SDS011;11050;52.222;20.916;2023-03-29T04:03:14;11.97;;;5.60;;
21777;SDS011;11050;52.222;20.916;2023-03-29T04:05:42;10.20;;;4.53;;
21777;SDS011;11050;52.222;20.916;2023-03-29T04:08:10;10.60;;;4.93;;
21777;SDS011;11050;52.222;20.916;2023-03-29T04:10:37;12.90;;;4.70;;
21777;SDS011;11050;52.222;20.916;2023-03-29T04:13:04;11.77;;;5.17;;
21777;SDS011;11050;52.222;20.916;2023-03-29T04:15:30;18.33;;;6.23;;
21777;SDS011;11050;52.222;20.916;2023-03-29T04:18:02;10.97;;;4.87;;
21777;SDS011;11050;52.222;20.916;2023-03-29T04:20:28;10.80;;;5.37;;
21777;SDS011;11050;52.222;20.916;2023-03-29T04:22:54;12.63;;;5.23;;
21777;SDS011;11050;52.222;20.916;2023-03-29T04:25:20;11.53;;;5.27;;
21777;SDS011;11050;52.222;20.916;2023-03-29T04:27:46;9.60;;;5.33;;
21777;SDS011;11050;52.222;20.916;2023-03-29T04:30:14;10.27;;;4.60;;
21777;SDS011;11050;52.222;20.916;2023-03-29T04:32:40;10.60;;;4.90;;
21777;SDS011;11050;52.222;20.916;2023-03-29T04:35:07;12.33;;;4.53;;
21777;SDS011;11050;52.222;20.916;2023-03-29T04:37:34;17.23;;;5.60;;
21777;SDS011;11050;52.222;20.916;2023-03-29T04:40:01;13.00;;;4.97;;
21777;SDS011;11050;52.222;20.916;2023-03-29T04:42:32;8.67;;;4.40;;
21777;SDS011;11050;52.222;20.916;2023-03-29T04:44:58;9.17;;;4.60;;
21777;SDS011;11050;52.222;20.916;2023-03-29T04:47:24;10.60;;;5.43;;
21777;SDS011;11050;52.222;20.916;2023-03-29T04:49:53;14.03;;;5.50;;
21777;SDS011;11050;52.222;20.916;2023-03-29T04:52:20;13.97;;;6.07;;
21777;SDS011;11050;52.222;20.916;2023-03-29T04:54:46;10.40;;;4.97;;
21777;SDS011;11050;52.222;20.916;2023-03-29T04:57:12;7.67;;;3.60;;
21777;SDS011;11050;52.222;20.916;2023-03-29T04:59:38;14.97;;;4.87;;
21777;SDS011;11050;52.222;20.916;2023-03-29T05:02:03;12.00;;;4.43;;
21777;SDS011;11050;52.222;20.916;2023-03-29T05:04:29;13.93;;;6.30;;
21777;SDS011;11050;52.222;20.916;2023-03-29T05:06:56;20.07;;;5.17;;
21777;SDS011;11050;52.222;20.916;2023-03-29T05:09:23;14.37;;;5.57;;
21777;SDS011;11050;52.222;20.916;2023-03-29T05:11:49;12.47;;;4.70;;
21777;SDS011;11050;52.222;20.916;2023-03-29T05:14:16;10.93;;;4.53;;
21777;SDS011;11050;52.222;20.916;2023-03-29T05:16:42;10.73;;;5.43;;
21777;SDS011;11050;52.222;20.916;2023-03-29T05:19:08;9.07;;;5.07;;
21777;SDS011;11050;52.222;20.916;2023-03-29T05:21:35;11.53;;;4.93;;
21777;SDS011;11050;52.222;20.916;2023-03-29T05:24:01;11.70;;;5.13;;
21777;SDS011;11050;52.222;20.916;2023-03-29T05:26:28;11.97;;;5.30;;
21777;SDS011;11050;52.222;20.916;2023-03-29T05:28:54;21.23;;;5.80;;
21777;SDS011;11050;52.222;20.916;2023-03-29T05:31:21;13.27;;;4.70;;
21777;SDS011;11050;52.222;20.916;2023-03-29T05:33:47;13.93;;;5.93;;
21777;SDS011;11050;52.222;20.916;2023-03-29T05:36:17;8.17;;;3.27;;
21777;SDS011;11050;52.222;20.916;2023-03-29T05:38:44;13.20;;;4.80;;
21777;SDS011;11050;52.222;20.916;2023-03-29T05:41:14;12.13;;;6.00;;
21777;SDS011;11050;52.222;20.916;2023-03-29T05:43:41;17.00;;;5.90;;
21777;SDS011;11050;52.222;20.916;2023-03-29T05:46:08;13.37;;;5.90;;
21777;SDS011;11050;52.222;20.916;2023-03-29T05:48:34;17.33;;;5.43;;
21777;SDS011;11050;52.222;20.916;2023-03-29T05:51:00;15.73;;;6.53;;
21777;SDS011;11050;52.222;20.916;2023-03-29T05:53:27;13.40;;;5.60;;
21777;SDS011;11050;52.222;20.916;2023-03-29T05:55:53;15.63;;;6.43;;
21777;SDS011;11050;52.222;20.916;2023-03-29T05:58:18;17.23;;;6.17;;
21777;SDS011;11050;52.222;20.916;2023-03-29T06:00:46;15.43;;;5.60;;
21777;SDS011;11050;52.222;20.916;2023-03-29T06:03:14;9.70;;;4.93;;
21777;SDS011;11050;52.222;20.916;2023-03-29T06:05:45;13.47;;;5.10;;
21777;SDS011;11050;52.222;20.916;2023-03-29T06:08:13;13.03;;;5.97;;
21777;SDS011;11050;52.222;20.916;2023-03-29T06:10:40;10.93;;;5.43;;
21777;SDS011;11050;52.222;20.916;2023-03-29T06:13:07;16.50;;;5.87;;
21777;SDS011;11050;52.222;20.916;2023-03-29T06:15:33;12.97;;;5.53;;
21777;SDS011;11050;52.222;20.916;2023-03-29T06:18:00;5.10;;;3.10;;
21777;SDS011;11050;52.222;20.916;2023-03-29T06:20:26;14.23;;;4.30;;
21777;SDS011;11050;52.222;20.916;2023-03-29T06:22:52;12.17;;;4.80;;
21777;SDS011;11050;52.222;20.916;2023-03-29T06:25:18;12.33;;;5.17;;
21777;SDS011;11050;52.222;20.916;2023-03-29T06:27:45;13.43;;;5.40;;
21777;SDS011;11050;52.222;20.916;2023-03-29T06:30:12;12.00;;;5.93;;
21777;SDS011;11050;52.222;20.916;2023-03-29T06:32:40;24.63;;;5.83;;
21777;SDS011;11050;52.222;20.916;2023-03-29T06:35:07;12.00;;;5.30;;
21777;SDS011;11050;52.222;20.916;2023-03-29T06:37:34;11.93;;;4.97;;
21777;SDS011;11050;52.222;20.916;2023-03-29T06:40:00;12.27;;;5.40;;
21777;SDS011;11050;52.222;20.916;2023-03-29T06:42:31;12.00;;;5.43;;
21777;SDS011;11050;52.222;20.916;2023-03-29T06:44:57;11.67;;;6.03;;
21777;SDS011;11050;52.222;20.916;2023-03-29T06:47:23;12.90;;;4.67;;
21777;SDS011;11050;52.222;20.916;2023-03-29T06:49:54;12.33;;;5.63;;
21777;SDS011;11050;52.222;20.916;2023-03-29T06:52:21;11.93;;;5.77;;
21777;SDS011;11050;52.222;20.916;2023-03-29T06:54:46;12.00;;;4.47;;
21777;SDS011;11050;52.222;20.916;2023-03-29T06:57:12;10.27;;;4.40;;
21777;SDS011;11050;52.222;20.916;2023-03-29T06:59:38;8.33;;;4.87;;
21777;SDS011;11050;52.222;20.916;2023-03-29T07:02:04;9.73;;;5.67;;
21777;SDS011;11050;52.222;20.916;2023-03-29T07:04:30;13.77;;;7.20;;
21777;SDS011;11050;52.222;20.916;2023-03-29T07:06:56;10.00;;;5.17;;
21777;SDS011;11050;52.222;20.916;2023-03-29T07:09:26;13.67;;;4.70;;
21777;SDS011;11050;52.222;20.916;2023-03-29T07:11:54;10.57;;;5.30;;
21777;SDS011;11050;52.222;20.916;2023-03-29T07:14:25;8.80;;;4.37;;
21777;SDS011;11050;52.222;20.916;2023-03-29T07:16:54;9.57;;;4.57;;
21777;SDS011;11050;52.222;20.916;2023-03-29T07:19:22;9.93;;;5.30;;
21777;SDS011;11050;52.222;20.916;2023-03-29T07:21:51;6.50;;;3.80;;
21777;SDS011;11050;52.222;20.916;2023-03-29T07:24:17;9.27;;;4.30;;
21777;SDS011;11050;52.222;20.916;2023-03-29T07:26:44;4.80;;;3.17;;
21777;SDS011;11050;52.222;20.916;2023-03-29T07:29:10;11.83;;;4.60;;
21777;SDS011;11050;52.222;20.916;2023-03-29T07:31:37;9.67;;;4.57;;
21777;SDS011;11050;52.222;20.916;2023-03-29T07:34:05;7.47;;;4.50;;
21777;SDS011;11050;52.222;20.916;2023-03-29T07:36:35;11.07;;;5.33;;
21777;SDS011;11050;52.222;20.916;2023-03-29T07:39:03;10.77;;;4.80;;
21777;SDS011;11050;52.222;20.916;2023-03-29T07:41:33;11.20;;;5.00;;
21777;SDS011;11050;52.222;20.916;2023-03-29T07:43:59;9.63;;;4.27;;
21777;SDS011;11050;52.222;20.916;2023-03-29T07:46:34;11.40;;;3.63;;
21777;SDS011;11050;52.222;20.916;2023-03-29T07:49:01;8.10;;;3.30;;
21777;SDS011;11050;52.222;20.916;2023-03-29T07:51:28;9.97;;;4.53;;
21777;SDS011;11050;52.222;20.916;2023-03-29T07:53:53;6.07;;;3.17;;
21777;SDS011;11050;52.222;20.916;2023-03-29T07:56:19;9.80;;;3.60;;
21777;SDS011;11050;52.222;20.916;2023-03-29T07:58:45;7.47;;;3.70;;
21777;SDS011;11050;52.222;20.916;2023-03-29T08:01:11;8.83;;;4.00;;
21777;SDS011;11050;52.222;20.916;2023-03-29T08:03:39;8.43;;;3.90;;
21777;SDS011;11050;52.222;20.916;2023-03-29T08:06:06;6.57;;;3.37;;
21777;SDS011;11050;52.222;20.916;2023-03-29T08:08:32;6.70;;;3.30;;
21777;SDS011;11050;52.222;20.916;2023-03-29T08:10:58;6.37;;;3.70;;
21777;SDS011;11050;52.222;20.916;2023-03-29T08:13:24;9.70;;;3.63;;
21777;SDS011;11050;52.222;20.916;2023-03-29T08:15:50;7.57;;;3.63;;
21777;SDS011;11050;52.222;20.916;2023-03-29T08:18:16;5.43;;;2.57;;
21777;SDS011;11050;52.222;20.916;2023-03-29T08:20:42;7.53;;;3.60;;
21777;SDS011;11050;52.222;20.916;2023-03-29T08:23:08;6.63;;;3.70;;
21777;SDS011;11050;52.222;20.916;2023-03-29T08:25:34;5.13;;;3.10;;
21777;SDS011;11050;52.222;20.916;2023-03-29T08:28:00;8.47;;;3.50;;
21777;SDS011;11050;52.222;20.916;2023-03-29T08:30:26;8.50;;;3.50;;
21777;SDS011;11050;52.222;20.916;2023-03-29T08:32:52;8.00;;;3.63;;
21777;SDS011;11050;52.222;20.916;2023-03-29T08:35:18;6.17;;;3.53;;
21777;SDS011;11050;52.222;20.916;2023-03-29T08:37:44;8.20;;;3.13;;
21777;SDS011;11050;52.222;20.916;2023-03-29T08:40:15;7.97;;;3.90;;
21777;SDS011;11050;52.222;20.916;2023-03-29T08:45:37;7.47;;;3.43;;
21777;SDS011;11050;52.222;20.916;2023-03-29T08:48:32;6.30;;;3.10;;
21777;SDS011;11050;52.222;20.916;2023-03-29T08:54:04;5.57;;;2.80;;
21777;SDS011;11050;52.222;20.916;2023-03-29T08:56:37;7.77;;;2.67;;
21777;SDS011;11050;52.222;20.916;2023-03-29T08:59:19;4.87;;;2.17;;
21777;SDS011;11050;52.222;20.916;2023-03-29T09:01:52;3.10;;;2.13;;
21777;SDS011;11050;52.222;20.916;2023-03-29T09:04:24;3.80;;;1.80;;
21777;SDS011;11050;52.222;20.916;2023-03-29T09:06:55;6.53;;;2.17;;
21777;SDS011;11050;52.222;20.916;2023-03-29T09:09:22;2.70;;;1.50;;
21777;SDS011;11050;52.222;20.916;2023-03-29T09:14:59;3.23;;;1.70;;
21777;SDS011;11050;52.222;20.916;2023-03-29T09:20:37;4.10;;;1.63;;
21777;SDS011;11050;52.222;20.916;2023-03-29T09:26:24;1.97;;;1.37;;
21777;SDS011;11050;52.222;20.916;2023-03-29T09:31:46;6.63;;;1.50;;
21777;SDS011;11050;52.222;20.916;2023-03-29T09:34:14;3.97;;;2.00;;
21777;SDS011;11050;52.222;20.916;2023-03-29T09:39:31;6.40;;;2.17;;
21777;SDS011;11050;52.222;20.916;2023-03-29T09:42:01;5.53;;;2.17;;
21777;SDS011;11050;52.222;20.916;2023-03-29T09:44:34;3.37;;;1.87;;
21777;SDS011;11050;52.222;20.916;2023-03-29T09:47:11;4.27;;;1.70;;
21777;SDS011;11050;52.222;20.916;2023-03-29T09:49:45;3.80;;;2.10;;
21777;SDS011;11050;52.222;20.916;2023-03-29T09:52:16;3.53;;;1.73;;
21777;SDS011;11050;52.222;20.916;2023-03-29T09:54:44;4.47;;;1.67;;
21777;SDS011;11050;52.222;20.916;2023-03-29T09:57:11;4.47;;;1.77;;
21777;SDS011;11050;52.222;20.916;2023-03-29T09:59:41;3.57;;;1.63;;
21777;SDS011;11050;52.222;20.916;2023-03-29T10:02:10;4.37;;;1.87;;
21777;SDS011;11050;52.222;20.916;2023-03-29T10:04:38;4.40;;;1.80;;
21777;SDS011;11050;52.222;20.916;2023-03-29T10:07:06;4.40;;;2.10;;
21777;SDS011;11050;52.222;20.916;2023-03-29T10:09:40;3.60;;;1.97;;
21777;SDS011;11050;52.222;20.916;2023-03-29T10:12:09;6.07;;;2.37;;
21777;SDS011;11050;52.222;20.916;2023-03-29T10:14:41;7.50;;;2.53;;
21777;SDS011;11050;52.222;20.916;2023-03-29T10:17:19;4.03;;;2.00;;
21777;SDS011;11050;52.222;20.916;2023-03-29T10:19:57;4.63;;;1.97;;
21777;SDS011;11050;52.222;20.916;2023-03-29T10:22:31;4.17;;;2.10;;
21777;SDS011;11050;52.222;20.916;2023-03-29T10:25:01;5.40;;;2.00;;
21777;SDS011;11050;52.222;20.916;2023-03-29T10:27:39;5.37;;;2.17;;
21777;SDS011;11050;52.222;20.916;2023-03-29T10:30:09;3.93;;;1.80;;
21777;SDS011;11050;52.222;20.916;2023-03-29T10:32:44;3.63;;;1.97;;
21777;SDS011;11050;52.222;20.916;2023-03-29T10:35:18;5.87;;;2.00;;
21777;SDS011;11050;52.222;20.916;2023-03-29T10:37:58;3.20;;;2.00;;
21777;SDS011;11050;52.222;20.916;2023-03-29T10:40:32;5.53;;;2.57;;
21777;SDS011;11050;52.222;20.916;2023-03-29T10:43:12;5.73;;;2.27;;
21777;SDS011;11050;52.222;20.916;2023-03-29T10:45:40;4.87;;;2.60;;
21777;SDS011;11050;52.222;20.916;2023-03-29T10:48:13;7.30;;;2.30;;
21777;SDS011;11050;52.222;20.916;2023-03-29T10:50:41;4.93;;;2.37;;
21777;SDS011;11050;52.222;20.916;2023-03-29T11:07:46;2.83;;;1.77;;
21777;SDS011;11050;52.222;20.916;2023-03-29T11:16:24;3.27;;;1.90;;
21777;SDS011;11050;52.222;20.916;2023-03-29T11:19:51;5.23;;;2.43;;
21777;SDS011;11050;52.222;20.916;2023-03-29T11:22:56;3.73;;;1.80;;
21777;SDS011;11050;52.222;20.916;2023-03-29T11:26:20;5.07;;;3.00;;
21777;SDS011;11050;52.222;20.916;2023-03-29T11:29:01;4.90;;;2.50;;
21777;SDS011;11050;52.222;20.916;2023-03-29T11:31:43;6.10;;;2.70;;
21777;SDS011;11050;52.222;20.916;2023-03-29T11:34:47;3.13;;;1.98;;
21777;SDS011;11050;52.222;20.916;2023-03-29T11:43:39;5.65;;;2.88;;
21777;SDS011;11050;52.222;20.916;2023-03-29T11:46:25;4.28;;;3.10;;
21777;SDS011;11050;52.222;20.916;2023-03-29T11:51:44;8.32;;;3.45;;
21777;SDS011;11050;52.222;20.916;2023-03-29T11:56:59;5.75;;;3.20;;
21777;SDS011;11050;52.222;20.916;2023-03-29T11:59:59;4.40;;;2.90;;
21777;SDS011;11050;52.222;20.916;2023-03-29T12:02:51;4.72;;;3.13;;
21777;SDS011;11050;52.222;20.916;2023-03-29T12:08:07;4.47;;;3.03;;
21777;SDS011;11050;52.222;20.916;2023-03-29T12:10:43;6.25;;;3.60;;
21777;SDS011;11050;52.222;20.916;2023-03-29T12:13:21;5.10;;;3.47;;
21777;SDS011;11050;52.222;20.916;2023-03-29T12:18:48;6.68;;;3.50;;
21777;SDS011;11050;52.222;20.916;2023-03-29T12:21:21;5.15;;;3.47;;
21777;SDS011;11050;52.222;20.916;2023-03-29T12:23:52;4.28;;;2.70;;
21777;SDS011;11050;52.222;20.916;2023-03-29T12:26:42;4.90;;;3.40;;
21777;SDS011;11050;52.222;20.916;2023-03-29T12:29:57;6.60;;;3.42;;
21777;SDS011;11050;52.222;20.916;2023-03-29T12:38:59;6.80;;;3.90;;
21777;SDS011;11050;52.222;20.916;2023-03-29T12:41:26;5.22;;;3.30;;
21777;SDS011;11050;52.222;20.916;2023-03-29T12:43:52;4.05;;;3.22;;
21777;SDS011;11050;52.222;20.916;2023-03-29T12:46:26;4.80;;;2.97;;
21777;SDS011;11050;52.222;20.916;2023-03-29T12:49:04;7.82;;;3.83;;
21777;SDS011;11050;52.222;20.916;2023-03-29T12:51:46;7.72;;;3.92;;
21777;SDS011;11050;52.222;20.916;2023-03-29T12:54:14;10.63;;;4.20;;
21777;SDS011;11050;52.222;20.916;2023-03-29T12:57:37;4.78;;;3.10;;
21777;SDS011;11050;52.222;20.916;2023-03-29T12:59:46;5.43;;;2.92;;
21777;SDS011;11050;52.222;20.916;2023-03-29T13:07:11;5.30;;;3.67;;
21777;SDS011;11050;52.222;20.916;2023-03-29T13:09:51;4.57;;;3.28;;
21777;SDS011;11050;52.222;20.916;2023-03-29T13:15:05;3.53;;;2.97;;
21777;SDS011;11050;52.222;20.916;2023-03-29T13:20:44;4.88;;;3.42;;
21777;SDS011;11050;52.222;20.916;2023-03-29T13:23:35;6.30;;;3.20;;
21777;SDS011;11050;52.222;20.916;2023-03-29T13:37:30;4.60;;;2.90;;
21777;SDS011;11050;52.222;20.916;2023-03-29T13:40:29;4.53;;;2.78;;
21777;SDS011;11050;52.222;20.916;2023-03-29T13:43:17;4.80;;;3.17;;
21777;SDS011;11050;52.222;20.916;2023-03-29T13:45:43;3.78;;;2.83;;
21777;SDS011;11050;52.222;20.916;2023-03-29T13:50:52;3.50;;;2.72;;
21777;SDS011;11050;52.222;20.916;2023-03-29T13:56:38;2.90;;;2.40;;
21777;SDS011;11050;52.222;20.916;2023-03-29T13:59:14;4.57;;;2.83;;
21777;SDS011;11050;52.222;20.916;2023-03-29T14:01:51;5.88;;;2.40;;
21777;SDS011;11050;52.222;20.916;2023-03-29T14:04:23;2.55;;;2.10;;
21777;SDS011;11050;52.222;20.916;2023-03-29T14:06:56;3.38;;;2.10;;
21777;SDS011;11050;52.222;20.916;2023-03-29T14:09:26;3.63;;;2.42;;
21777;SDS011;11050;52.222;20.916;2023-03-29T14:11:57;3.67;;;2.47;;
21777;SDS011;11050;52.222;20.916;2023-03-29T14:14:25;3.08;;;2.33;;
21777;SDS011;11050;52.222;20.916;2023-03-29T14:16:56;2.08;;;1.88;;
21777;SDS011;11050;52.222;20.916;2023-03-29T14:19:31;2.67;;;2.08;;
21777;SDS011;11050;52.222;20.916;2023-03-29T14:22:05;2.22;;;1.90;;
21777;SDS011;11050;52.222;20.916;2023-03-29T14:24:38;3.03;;;2.17;;
21777;SDS011;11050;52.222;20.916;2023-03-29T14:27:31;2.80;;;2.17;;
21777;SDS011;11050;52.222;20.916;2023-03-29T14:30:01;3.47;;;2.47;;
21777;SDS011;11050;52.222;20.916;2023-03-29T14:32:41;4.85;;;2.30;;
21777;SDS011;11050;52.222;20.916;2023-03-29T14:35:08;2.78;;;2.00;;
21777;SDS011;11050;52.222;20.916;2023-03-29T14:37:34;5.32;;;2.78;;
21777;SDS011;11050;52.222;20.916;2023-03-29T14:39:59;4.00;;;2.28;;
21777;SDS011;11050;52.222;20.916;2023-03-29T14:42:26;3.15;;;2.40;;
21777;SDS011;11050;52.222;20.916;2023-03-29T14:45:03;2.95;;;2.33;;
21777;SDS011;11050;52.222;20.916;2023-03-29T14:47:31;5.18;;;2.53;;
21777;SDS011;11050;52.222;20.916;2023-03-29T14:49:58;5.07;;;2.60;;
21777;SDS011;11050;52.222;20.916;2023-03-29T14:52:28;3.72;;;2.47;;
21777;SDS011;11050;52.222;20.916;2023-03-29T14:54:57;3.05;;;2.53;;
21777;SDS011;11050;52.222;20.916;2023-03-29T14:57:27;4.03;;;2.67;;
21777;SDS011;11050;52.222;20.916;2023-03-29T15:00:01;3.65;;;2.85;;
21777;SDS011;11050;52.222;20.916;2023-03-29T15:02:57;5.60;;;3.33;;
21777;SDS011;11050;52.222;20.916;2023-03-29T15:05:29;5.93;;;3.92;;
21777;SDS011;11050;52.222;20.916;2023-03-29T15:08:05;5.43;;;3.10;;
21777;SDS011;11050;52.222;20.916;2023-03-29T15:10:38;3.85;;;2.90;;
21777;SDS011;11050;52.222;20.916;2023-03-29T15:13:06;6.03;;;3.22;;
21777;SDS011;11050;52.222;20.916;2023-03-29T15:15:40;5.05;;;3.20;;
21777;SDS011;11050;52.222;20.916;2023-03-29T15:18:06;4.80;;;3.95;;
21777;SDS011;11050;52.222;20.916;2023-03-29T15:20:38;3.67;;;2.83;;
21777;SDS011;11050;52.222;20.916;2023-03-29T15:25:45;4.07;;;2.92;;
21777;SDS011;11050;52.222;20.916;2023-03-29T15:28:24;5.45;;;3.60;;
21777;SDS011;11050;52.222;20.916;2023-03-29T15:30:55;4.63;;;3.42;;
21777;SDS011;11050;52.222;20.916;2023-03-29T15:33:43;3.66;;;2.82;;
21777;SDS011;11050;52.222;20.916;2023-03-29T15:36:10;6.57;;;3.40;;
21777;SDS011;11050;52.222;20.916;2023-03-29T15:38:38;5.72;;;3.40;;
21777;SDS011;11050;52.222;20.916;2023-03-29T15:41:06;5.85;;;3.90;;
21777;SDS011;11050;52.222;20.916;2023-03-29T15:43:34;4.55;;;3.30;;
21777;SDS011;11050;52.222;20.916;2023-03-29T15:46:00;7.63;;;3.80;;
21777;SDS011;11050;52.222;20.916;2023-03-29T15:48:26;5.40;;;3.42;;
21777;SDS011;11050;52.222;20.916;2023-03-29T15:50:53;5.47;;;3.38;;
21777;SDS011;11050;52.222;20.916;2023-03-29T15:53:20;5.65;;;3.03;;
21777;SDS011;11050;52.222;20.916;2023-03-29T15:55:51;4.15;;;3.00;;
21777;SDS011;11050;52.222;20.916;2023-03-29T15:58:26;5.40;;;3.63;;
21777;SDS011;11050;52.222;20.916;2023-03-29T16:01:04;7.93;;;4.18;;
21777;SDS011;11050;52.222;20.916;2023-03-29T16:03:47;7.18;;;3.70;;
21777;SDS011;11050;52.222;20.916;2023-03-29T16:06:14;6.53;;;4.07;;
21777;SDS011;11050;52.222;20.916;2023-03-29T16:08:41;5.00;;;3.50;;
21777;SDS011;11050;52.222;20.916;2023-03-29T16:11:07;5.18;;;3.42;;
21777;SDS011;11050;52.222;20.916;2023-03-29T16:13:33;7.72;;;3.83;;
21777;SDS011;11050;52.222;20.916;2023-03-29T16:15:59;7.00;;;3.15;;
21777;SDS011;11050;52.222;20.916;2023-03-29T16:18:25;7.63;;;4.07;;
21777;SDS011;11050;52.222;20.916;2023-03-29T16:20:51;6.35;;;3.67;;
21777;SDS011;11050;52.222;20.916;2023-03-29T16:23:17;6.10;;;3.60;;
21777;SDS011;11050;52.222;20.916;2023-03-29T16:25:42;8.15;;;3.47;;
21777;SDS011;11050;52.222;20.916;2023-03-29T16:28:08;9.50;;;4.57;;
21777;SDS011;11050;52.222;20.916;2023-03-29T16:30:35;6.38;;;4.00;;
21777;SDS011;11050;52.222;20.916;2023-03-29T16:33:02;7.43;;;4.85;;
21777;SDS011;11050;52.222;20.916;2023-03-29T16:35:33;6.05;;;4.20;;
21777;SDS011;11050;52.222;20.916;2023-03-29T16:38:02;10.68;;;4.32;;
21777;SDS011;11050;52.222;20.916;2023-03-29T16:40:28;8.15;;;4.15;;
21777;SDS011;11050;52.222;20.916;2023-03-29T16:42:54;8.90;;;4.05;;
21777;SDS011;11050;52.222;20.916;2023-03-29T16:45:20;8.38;;;3.90;;
21777;SDS011;11050;52.222;20.916;2023-03-29T16:47:45;12.70;;;4.50;;